Terminal Aerodrome Forecast
Issued by NWS

Home | Current Version | Previous Version | Text Only | Print | Product List | Glossary Off
Versions: 1 2 3 4 5 6 7 8 9 10 11 12 13 14 15 16 17

000
FTUS43 KBIS 240529
TAFJMS
TAF
KJMS 240529Z 2406/2506 07017G26KT P6SM OVC008
     FM241000 07012G20KT 4SM BR VCSH OVC003
     FM241200 08010KT 4SM -RA BR OVC003
     FM241800 02009KT 6SM BR VCSH OVC008
     FM242100 33013KT P6SM OVC010=

USA.gov is the U.S. government's official web portal to all federal, state and local government web resources and services.